Time;durP1;ratioP1;P1;durP2;ratioP2;P2;SDS_P1;SDS_P2;PMS_P1;PMS_P2;Temp;Humidity;BMP_temperature;BMP_pressure;BME280_temperature;BME280_humidity;BME280_pressure;Samples;Min_cycle;Max_cycle;Signal;HPM_P1;HPM_P2
2022/04/10 00:01:32;;;;;;;27.27;25.87;;;5.50;53.10;;;;;;6215286;23;20396;-81
2022/04/10 00:03:58;;;;;;;26.20;25.00;;;5.50;54.90;;;;;;6214922;23;20394;-83
2022/04/10 00:06:24;;;;;;;24.97;23.97;;;5.50;54.60;;;;;;6215496;23;20390;-77
2022/04/10 00:08:50;;;;;;;24.70;23.60;;;5.60;54.50;;;;;;6214616;23;20489;-76
2022/04/10 00:11:16;;;;;;;26.73;25.50;;;5.60;55.10;;;;;;6215678;23;20465;-77
2022/04/10 00:13:41;;;;;;;24.53;23.53;;;5.50;53.40;;;;;;6215255;23;20179;-76
2022/04/10 00:16:08;;;;;;;26.93;25.30;;;5.50;54.10;;;;;;6242105;23;20366;-76
2022/04/10 00:18:35;;;;;;;25.60;24.50;;;5.50;54.40;;;;;;6215175;23;20386;-77
2022/04/10 00:21:01;;;;;;;25.07;24.00;;;5.50;55.10;;;;;;6215313;23;20413;-76
2022/04/10 00:23:27;;;;;;;25.23;23.80;;;5.60;55.10;;;;;;6215621;23;20383;-77
2022/04/10 00:25:52;;;;;;;26.90;25.70;;;5.50;53.30;;;;;;6215260;23;20396;-77
2022/04/10 00:28:18;;;;;;;26.10;24.90;;;5.50;54.00;;;;;;6215414;23;20485;-77
2022/04/10 00:30:43;;;;;;;26.60;25.10;;;5.50;52.80;;;;;;6241580;23;20155;-77
2022/04/10 00:33:09;;;;;;;27.20;25.77;;;5.50;52.80;;;;;;6215578;23;20160;-77
2022/04/10 00:35:35;;;;;;;24.60;23.40;;;5.60;53.30;;;;;;6215382;23;20156;-76
2022/04/10 00:38:00;;;;;;;26.00;24.90;;;5.50;52.70;;;;;;6242035;23;20139;-77
2022/04/10 00:40:26;;;;;;;26.20;25.00;;;5.60;53.50;;;;;;6242126;23;20165;-75
2022/04/10 00:42:52;;;;;;;26.63;25.23;;;5.50;51.80;;;;;;6215608;23;20464;-77
2022/04/10 00:45:20;;;;;;;26.67;25.47;;;5.50;52.30;;;;;;6241758;23;20194;-76
2022/04/10 00:47:45;;;;;;;26.70;25.40;;;5.50;52.70;;;;;;6215369;23;20163;-76
2022/04/10 00:50:13;;;;;;;26.93;25.60;;;5.50;51.80;;;;;;6215288;23;20394;-76
2022/04/10 00:52:42;;;;;;;25.60;24.40;;;5.50;52.40;;;;;;6215003;23;20426;-76
2022/04/10 00:55:08;;;;;;;24.70;23.70;;;5.40;52.40;;;;;;6215690;23;20382;-76
2022/04/10 00:57:34;;;;;;;27.37;25.57;;;5.50;53.40;;;;;;6242393;23;20710;-77
2022/04/10 01:00:00;;;;;;;26.07;24.87;;;5.50;53.20;;;;;;6243083;23;20695;-76
2022/04/10 01:02:26;;;;;;;26.17;24.90;;;5.50;52.70;;;;;;6215838;23;20386;-77
2022/04/10 01:04:51;;;;;;;24.37;23.37;;;5.50;52.90;;;;;;6215511;23;20245;-77
2022/04/10 01:07:18;;;;;;;24.17;23.27;;;5.50;53.00;;;;;;6215952;23;20491;-77
2022/04/10 01:09:45;;;;;;;23.77;22.87;;;5.50;52.60;;;;;;6214885;23;20539;-76
2022/04/10 01:12:12;;;;;;;24.70;23.50;;;5.50;52.50;;;;;;6215518;23;20429;-76
2022/04/10 01:14:38;;;;;;;25.00;23.87;;;5.50;52.20;;;;;;6214870;23;20421;-77
2022/04/10 01:17:07;;;;;;;23.80;22.70;;;5.40;53.30;;;;;;6215654;23;20394;-77
2022/04/10 01:19:34;;;;;;;24.20;22.90;;;5.40;52.70;;;;;;6216156;23;20450;-77
2022/04/10 01:22:04;;;;;;;24.00;22.90;;;5.40;51.50;;;;;;6217050;23;20401;-76
2022/04/10 01:24:34;;;;;;;23.33;22.37;;;5.40;52.30;;;;;;6244474;23;20367;-75
2022/04/10 01:27:00;;;;;;;22.57;21.67;;;5.30;52.60;;;;;;6216797;23;20479;-81
2022/04/10 01:29:27;;;;;;;22.93;21.90;;;5.30;53.10;;;;;;6216959;23;20425;-81
2022/04/10 01:31:53;;;;;;;23.17;22.27;;;5.20;52.40;;;;;;6215752;23;20244;-82
2022/04/10 01:34:18;;;;;;;23.13;22.13;;;5.20;52.60;;;;;;6215482;23;20469;-75
2022/04/10 01:36:45;;;;;;;25.00;23.60;;;5.30;53.70;;;;;;6214680;23;20166;-76
2022/04/10 01:39:12;;;;;;;22.73;21.83;;;5.40;53.40;;;;;;6214983;23;20713;-77
2022/04/10 01:41:38;;;;;;;22.33;21.23;;;5.30;52.80;;;;;;6215110;23;20397;-76
2022/04/10 01:44:05;;;;;;;22.50;21.60;;;5.30;53.30;;;;;;6215282;23;20712;-76
2022/04/10 01:46:32;;;;;;;23.17;22.27;;;5.30;53.30;;;;;;6214774;23;20209;-76
2022/04/10 01:48:58;;;;;;;23.37;22.37;;;5.40;53.30;;;;;;6214908;23;20390;-76
2022/04/10 01:51:24;;;;;;;22.50;21.60;;;5.40;53.50;;;;;;6214696;23;20767;-76
2022/04/10 01:53:51;;;;;;;25.27;24.20;;;5.50;52.80;;;;;;6214873;23;20382;-77
2022/04/10 01:56:17;;;;;;;24.20;22.80;;;5.50;53.30;;;;;;6242790;23;20461;-77
2022/04/10 01:58:45;;;;;;;23.37;22.40;;;5.50;54.00;;;;;;6213998;23;20441;-76
2022/04/10 02:01:12;;;;;;;23.50;22.40;;;5.50;53.70;;;;;;6214704;23;20378;-76
2022/04/10 02:03:38;;;;;;;22.53;21.63;;;5.50;54.40;;;;;;6214154;23;20396;-76
2022/04/10 02:06:05;;;;;;;22.60;21.70;;;5.50;54.40;;;;;;6214711;23;20760;-75
2022/04/10 02:08:32;;;;;;;21.53;20.67;;;5.50;54.20;;;;;;6215370;23;20385;-76
2022/04/10 02:10:58;;;;;;;21.90;20.90;;;5.50;53.70;;;;;;6215092;23;20433;-77
2022/04/10 02:13:24;;;;;;;22.90;21.93;;;5.50;52.80;;;;;;6216789;23;20386;-77
2022/04/10 02:15:50;;;;;;;23.57;22.57;;;5.50;54.10;;;;;;6216320;23;20390;-77
2022/04/10 02:18:16;;;;;;;22.23;21.13;;;5.40;53.30;;;;;;6216952;23;20928;-76
2022/04/10 02:20:42;;;;;;;24.40;23.10;;;5.40;54.50;;;;;;6216781;23;20178;-76
2022/04/10 02:23:08;;;;;;;24.07;22.97;;;5.40;54.30;;;;;;6216156;23;20461;-75
2022/04/10 02:25:34;;;;;;;23.10;21.90;;;5.40;55.20;;;;;;6216007;23;20152;-77
2022/04/10 02:28:00;;;;;;;22.97;21.90;;;5.40;54.70;;;;;;6216534;23;20571;-76
2022/04/10 02:30:26;;;;;;;22.20;21.23;;;5.40;55.00;;;;;;6216375;23;20464;-76
2022/04/10 02:32:51;;;;;;;21.80;20.90;;;5.40;54.40;;;;;;6214988;23;20926;-76
2022/04/10 02:35:18;;;;;;;22.37;21.47;;;5.40;54.10;;;;;;6216487;23;20413;-76
2022/04/10 02:37:45;;;;;;;23.00;21.90;;;5.30;53.50;;;;;;6215623;23;20163;-77
2022/04/10 02:40:14;;;;;;;22.87;21.67;;;5.30;53.70;;;;;;6215802;23;20394;-77
2022/04/10 02:42:41;;;;;;;23.30;22.30;;;5.40;54.50;;;;;;6216416;23;20390;-76
2022/04/10 02:45:07;;;;;;;24.87;23.63;;;5.40;54.00;;;;;;6215765;23;20383;-76
2022/04/10 02:47:33;;;;;;;22.80;21.70;;;5.20;53.90;;;;;;6216436;23;20386;-76
2022/04/10 02:49:59;;;;;;;23.43;22.33;;;5.20;54.50;;;;;;6215552;23;20969;-76
2022/04/10 02:52:26;;;;;;;22.40;21.03;;;5.20;54.80;;;;;;6215724;23;20453;-76
2022/04/10 02:54:51;;;;;;;24.20;23.20;;;5.30;54.00;;;;;;6216183;23;20912;-77
2022/04/10 02:57:17;;;;;;;24.67;23.57;;;5.30;54.20;;;;;;6215837;23;20417;-76
2022/04/10 02:59:43;;;;;;;23.67;22.57;;;5.30;54.60;;;;;;6216175;23;20382;-76
2022/04/10 03:02:09;;;;;;;24.60;23.33;;;5.20;53.80;;;;;;6243075;23;20175;-76
2022/04/10 03:04:34;;;;;;;23.50;22.40;;;5.20;54.20;;;;;;6215727;23;20393;-76
2022/04/10 03:07:00;;;;;;;24.37;23.27;;;5.10;54.00;;;;;;6215792;23;20152;-76
2022/04/10 03:09:26;;;;;;;24.13;23.03;;;5.10;53.70;;;;;;6215881;23;20159;-75
2022/04/10 03:11:51;;;;;;;23.80;22.70;;;5.10;54.40;;;;;;6215708;23;20258;-76
2022/04/10 03:14:17;;;;;;;23.13;22.13;;;5.10;54.80;;;;;;6215888;23;20162;-77
2022/04/10 03:16:43;;;;;;;23.57;22.23;;;5.10;55.30;;;;;;6215677;23;20491;-77
2022/04/10 03:19:09;;;;;;;23.10;22.03;;;5.10;55.40;;;;;;6215804;23;20652;-76
2022/04/10 03:21:34;;;;;;;22.63;21.63;;;5.10;55.10;;;;;;6215629;23;20234;-77
2022/04/10 03:24:01;;;;;;;23.90;22.73;;;5.00;55.10;;;;;;6216805;23;20477;-76
2022/04/10 03:26:28;;;;;;;23.47;22.40;;;5.00;53.90;;;;;;6217156;23;20163;-77
2022/04/10 03:28:54;;;;;;;23.40;22.20;;;5.10;54.60;;;;;;6216989;23;20394;-77
2022/04/10 03:31:20;;;;;;;22.77;21.77;;;5.10;54.10;;;;;;6217485;23;20821;-77
2022/04/10 03:33:49;;;;;;;23.60;22.50;;;5.10;52.80;;;;;;6217944;23;20386;-77
2022/04/10 03:36:16;;;;;;;22.67;21.60;;;4.90;53.20;;;;;;6219284;23;20383;-76
2022/04/10 03:38:42;;;;;;;23.77;22.77;;;5.00;54.50;;;;;;6218087;23;20382;-76
2022/04/10 03:41:08;;;;;;;23.43;22.27;;;4.90;55.20;;;;;;6217500;23;20390;-76
2022/04/10 03:43:34;;;;;;;24.60;23.40;;;4.90;54.70;;;;;;6217555;23;20828;-76
2022/04/10 03:46:00;;;;;;;24.10;23.00;;;4.90;55.10;;;;;;6218125;23;20398;-76
2022/04/10 03:48:26;;;;;;;23.77;22.77;;;4.90;54.30;;;;;;6217674;23;20188;-77
2022/04/10 03:50:52;;;;;;;24.30;23.20;;;4.90;54.50;;;;;;6217869;23;20851;-77
2022/04/10 03:53:18;;;;;;;24.30;23.23;;;4.90;54.80;;;;;;6218119;23;20390;-77
2022/04/10 03:55:43;;;;;;;23.50;22.50;;;4.90;54.10;;;;;;6218131;23;20152;-77
2022/04/10 03:58:09;;;;;;;24.50;23.27;;;4.80;55.20;;;;;;6218452;23;20727;-77
2022/04/10 04:00:35;;;;;;;24.27;23.17;;;4.80;54.40;;;;;;6217985;23;20779;-77
2022/04/10 04:03:01;;;;;;;23.90;22.80;;;4.70;54.00;;;;;;6218763;23;20671;-77
2022/04/10 04:05:27;;;;;;;23.63;22.60;;;4.80;53.90;;;;;;6217740;23;20386;-77
2022/04/10 04:07:53;;;;;;;24.27;23.20;;;4.70;54.50;;;;;;6218429;23;20456;-77
2022/04/10 04:10:19;;;;;;;24.20;23.10;;;4.80;54.90;;;;;;6218740;23;20397;-75
2022/04/10 04:12:44;;;;;;;24.70;23.60;;;4.70;54.20;;;;;;6218522;23;20426;-76
2022/04/10 04:15:11;;;;;;;24.53;23.37;;;4.90;53.60;;;;;;6218625;23;20151;-76
2022/04/10 04:17:37;;;;;;;26.30;24.80;;;4.90;53.30;;;;;;6218982;23;20156;-76
2022/04/10 04:20:07;;;;;;;24.47;23.27;;;4.80;52.90;;;;;;6219030;23;20889;-76
2022/04/10 04:22:36;;;;;;;25.07;23.87;;;4.80;53.20;;;;;;6221253;23;20397;-81
2022/04/10 04:25:06;;;;;;;24.70;23.50;;;4.90;52.10;;;;;;6214048;23;20521;-81
2022/04/10 04:27:32;;;;;;;24.90;23.50;;;4.80;53.40;;;;;;6191837;23;20411;-76
2022/04/10 04:29:58;;;;;;;26.00;24.90;;;4.70;53.50;;;;;;6188964;23;20387;-77
2022/04/10 04:32:24;;;;;;;25.10;24.00;;;4.80;54.20;;;;;;6188470;23;20427;-76
2022/04/10 04:34:49;;;;;;;25.67;24.17;;;4.90;53.00;;;;;;6188684;23;20387;-76
2022/04/10 04:37:15;;;;;;;24.80;23.60;;;4.90;53.60;;;;;;6188792;23;20152;-76
2022/04/10 04:39:40;;;;;;;25.57;24.27;;;5.00;53.20;;;;;;6188663;23;20156;-77
2022/04/10 04:42:07;;;;;;;25.27;24.10;;;5.10;52.90;;;;;;6188736;23;20167;-76
2022/04/10 04:44:33;;;;;;;24.23;23.10;;;5.00;52.60;;;;;;6187859;23;20179;-77
2022/04/10 04:46:59;;;;;;;25.23;24.13;;;5.10;54.10;;;;;;6188481;23;20449;-76
2022/04/10 04:49:25;;;;;;;25.00;23.70;;;5.10;53.10;;;;;;6188874;23;20156;-77
2022/04/10 04:51:51;;;;;;;25.83;24.63;;;5.10;52.40;;;;;;6188607;23;20180;-77
2022/04/10 04:54:16;;;;;;;24.90;23.80;;;5.10;52.60;;;;;;6212913;23;20486;-76
2022/04/10 04:56:42;;;;;;;25.03;23.83;;;5.10;53.10;;;;;;6188275;23;20171;-76
2022/04/10 04:59:07;;;;;;;25.03;23.90;;;5.20;52.00;;;;;;6188404;23;20322;-76
2022/04/10 05:01:33;;;;;;;25.63;24.33;;;5.20;52.00;;;;;;6187871;23;20159;-76
2022/04/10 05:03:59;;;;;;;25.23;23.90;;;5.20;51.80;;;;;;6187857;23;20158;-76
2022/04/10 05:06:25;;;;;;;25.00;23.80;;;5.20;51.70;;;;;;6187916;23;20187;-76
2022/04/10 05:08:54;;;;;;;25.20;24.20;;;5.30;51.90;;;;;;6188786;23;20383;-76
2022/04/10 05:11:19;;;;;;;25.80;24.47;;;5.30;51.40;;;;;;6188382;23;20426;-75
2022/04/10 05:13:45;;;;;;;25.17;23.97;;;5.30;52.20;;;;;;6188569;23;20387;-76
2022/04/10 05:16:11;;;;;;;24.93;23.50;;;5.30;52.80;;;;;;6188012;23;20152;-76
2022/04/10 05:18:36;;;;;;;23.63;22.50;;;5.30;51.80;;;;;;6188331;23;20298;-77
2022/04/10 05:21:03;;;;;;;24.60;23.50;;;5.20;52.00;;;;;;6188394;23;20160;-77
2022/04/10 05:23:30;;;;;;;25.40;24.20;;;5.20;52.50;;;;;;6187807;23;20208;-75
2022/04/10 05:25:56;;;;;;;25.67;24.27;;;5.30;51.30;;;;;;6188237;23;20375;-75
2022/04/10 05:28:22;;;;;;;24.37;23.27;;;5.40;52.30;;;;;;6187939;23;20383;-76
2022/04/10 05:30:48;;;;;;;24.63;23.43;;;5.40;51.00;;;;;;6187898;23;20160;-76
2022/04/10 05:33:14;;;;;;;24.57;23.43;;;5.30;50.60;;;;;;6187945;23;20391;-75
2022/04/10 05:35:39;;;;;;;24.30;22.90;;;5.40;51.40;;;;;;6188027;23;20406;-76
2022/04/10 05:38:05;;;;;;;23.50;22.40;;;5.40;51.60;;;;;;6188154;23;20159;-75
2022/04/10 05:40:31;;;;;;;26.50;25.17;;;5.40;51.10;;;;;;6187476;23;20715;-76
2022/04/10 05:42:57;;;;;;;25.47;24.00;;;5.40;50.50;;;;;;6186615;23;20160;-76
2022/04/10 05:45:22;;;;;;;25.73;24.53;;;5.40;49.80;;;;;;6184833;23;20925;-77
2022/04/10 05:47:48;;;;;;;23.10;22.10;;;5.50;50.50;;;;;;6187768;23;20446;-83
2022/04/10 05:50:16;;;;;;;23.27;22.17;;;5.50;50.00;;;;;;6186844;23;20221;-83
2022/04/10 05:52:43;;;;;;;25.07;23.97;;;5.40;49.60;;;;;;6186449;23;20431;-83
2022/04/10 05:55:11;;;;;;;26.23;24.67;;;5.50;50.60;;;;;;6188344;23;20387;-82
2022/04/10 05:57:37;;;;;;;25.60;24.30;;;5.50;50.70;;;;;;6187881;23;20703;-84
2022/04/10 06:00:12;;;;;;;29.80;26.23;;;5.50;49.90;;;;;;6187698;23;20490;-83
2022/04/10 06:02:38;;;;;;;25.60;24.40;;;5.60;49.40;;;;;;6187758;23;20390;-81
2022/04/10 06:05:05;;;;;;;25.23;24.03;;;5.50;48.70;;;;;;6213717;23;20474;-82
2022/04/10 06:07:30;;;;;;;24.47;23.17;;;5.60;50.30;;;;;;6188426;23;20429;-82
2022/04/10 06:09:56;;;;;;;24.20;23.00;;;5.50;48.70;;;;;;6188264;23;20728;-83
2022/04/10 06:12:22;;;;;;;26.07;24.87;;;5.60;48.80;;;;;;6188287;23;20768;-83
2022/04/10 06:14:47;;;;;;;24.37;23.23;;;5.70;48.00;;;;;;6187249;23;20488;-83
2022/04/10 06:17:13;;;;;;;24.73;23.40;;;5.80;48.70;;;;;;6188458;23;20541;-83
2022/04/10 06:19:39;;;;;;;24.40;23.30;;;5.90;49.00;;;;;;6214767;23;20155;-84
2022/04/10 06:22:07;;;;;;;26.43;24.73;;;6.00;47.60;;;;;;6188396;23;20168;-82
2022/04/10 06:24:32;;;;;;;25.47;23.67;;;5.90;48.20;;;;;;6188225;23;20262;-82
2022/04/10 06:26:58;;;;;;;26.47;25.10;;;6.00;48.90;;;;;;6188829;23;20929;-83
2022/04/10 06:29:23;;;;;;;23.60;22.40;;;6.10;47.90;;;;;;6188599;23;20226;-81
2022/04/10 06:31:49;;;;;;;22.90;21.90;;;6.20;46.90;;;;;;6215604;23;20247;-82
2022/04/10 06:34:15;;;;;;;23.50;22.50;;;6.20;46.70;;;;;;6189044;23;20633;-82
2022/04/10 06:36:41;;;;;;;24.57;23.37;;;6.20;47.90;;;;;;6189218;23;20474;-82
2022/04/10 06:39:07;;;;;;;22.67;21.60;;;6.30;46.70;;;;;;6215643;23;20470;-82
2022/04/10 06:41:33;;;;;;;23.77;22.57;;;6.30;46.60;;;;;;6189048;23;20921;-82
2022/04/10 06:43:59;;;;;;;22.90;21.80;;;6.30;47.40;;;;;;6188156;23;20398;-76
2022/04/10 06:46:26;;;;;;;23.93;22.93;;;6.40;45.80;;;;;;6213014;23;20394;-76
2022/04/10 06:48:55;;;;;;;22.23;21.23;;;6.40;46.50;;;;;;6188328;23;20399;-76
2022/04/10 06:51:21;;;;;;;23.80;22.60;;;6.40;46.80;;;;;;6187736;23;20438;-76
2022/04/10 06:53:48;;;;;;;23.57;22.50;;;6.50;46.40;;;;;;6187501;23;20949;-76
2022/04/10 06:56:14;;;;;;;24.17;22.83;;;6.60;46.10;;;;;;6188248;23;20387;-78
2022/04/10 06:58:39;;;;;;;21.43;20.47;;;6.50;45.00;;;;;;6189627;23;20702;-76
2022/04/10 07:01:05;;;;;;;22.83;21.73;;;6.40;45.80;;;;;;6214294;23;20392;-76
2022/04/10 07:03:31;;;;;;;21.00;20.10;;;6.60;45.70;;;;;;6188343;23;20167;-76
2022/04/10 07:05:57;;;;;;;21.30;20.30;;;6.60;44.70;;;;;;6188917;23;20480;-77
2022/04/10 07:08:23;;;;;;;21.43;20.43;;;6.70;44.50;;;;;;6188497;23;20156;-77
2022/04/10 07:10:48;;;;;;;22.30;21.30;;;6.80;45.10;;;;;;6215422;23;20133;-77
2022/04/10 07:13:18;;;;;;;22.53;21.53;;;6.70;45.20;;;;;;6188651;23;20391;-77
2022/04/10 07:15:48;;;;;;;22.40;21.40;;;6.70;44.70;;;;;;6188771;23;20200;-83
2022/04/10 07:18:14;;;;;;;22.30;21.10;;;6.80;45.70;;;;;;6186849;23;20414;-78
2022/04/10 07:20:40;;;;;;;22.10;20.90;;;6.90;45.00;;;;;;6189374;23;20395;-78
2022/04/10 07:25:50;;;;;;;22.10;21.10;;;7.10;43.70;;;;;;6214897;23;20277;-76
2022/04/10 07:28:16;;;;;;;21.73;20.77;;;7.00;43.40;;;;;;6186600;23;20637;-77
2022/04/10 07:30:41;;;;;;;22.03;20.93;;;7.20;44.10;;;;;;6187375;23;20724;-78
2022/04/10 07:33:08;;;;;;;21.97;20.83;;;7.10;44.50;;;;;;6188399;23;20214;-78
2022/04/10 07:35:37;;;;;;;21.97;20.87;;;7.20;44.30;;;;;;6188577;23;20385;-78
2022/04/10 07:38:03;;;;;;;22.73;21.53;;;7.30;42.00;;;;;;6188782;23;20483;-78
2022/04/10 07:40:29;;;;;;;22.13;21.00;;;7.20;43.00;;;;;;6187808;23;20452;-77
2022/04/10 07:42:57;;;;;;;21.80;20.80;;;7.30;43.20;;;;;;6188679;23;20386;-76
2022/04/10 07:48:07;;;;;;;22.60;21.60;;;7.30;43.60;;;;;;6213769;23;20402;-77
2022/04/10 07:50:33;;;;;;;21.63;20.53;;;7.20;42.30;;;;;;6214155;23;20377;-77
2022/04/10 07:52:59;;;;;;;21.17;20.10;;;7.30;44.70;;;;;;6187277;23;20202;-78
2022/04/10 07:55:27;;;;;;;21.03;20.03;;;7.40;43.50;;;;;;6213778;23;20827;-78
2022/04/10 07:57:54;;;;;;;22.37;21.17;;;7.50;42.50;;;;;;6187088;23;20159;-77
2022/04/10 08:00:19;;;;;;;21.33;20.33;;;7.70;41.40;;;;;;6187340;23;20777;-77
2022/04/10 08:02:48;;;;;;;22.67;21.43;;;7.80;39.70;;;;;;6187794;23;20391;-77
2022/04/10 08:05:15;;;;;;;21.20;20.10;;;7.80;40.80;;;;;;6188208;23;20174;-77
2022/04/10 08:07:43;;;;;;;21.40;20.50;;;7.80;40.10;;;;;;6188322;23;20882;-78
2022/04/10 08:10:09;;;;;;;21.57;19.90;;;7.80;40.40;;;;;;6188189;23;20422;-77
2022/04/10 08:12:34;;;;;;;21.40;20.40;;;8.10;38.00;;;;;;6188167;23;20430;-77
2022/04/10 08:15:00;;;;;;;21.10;20.20;;;8.00;39.70;;;;;;6188163;23;20162;-78
2022/04/10 08:17:26;;;;;;;21.53;20.33;;;8.00;40.20;;;;;;6215252;23;20144;-76
2022/04/10 08:19:51;;;;;;;21.30;20.00;;;8.00;39.40;;;;;;6188553;23;20193;-78
2022/04/10 08:22:24;;;;;;;22.10;20.80;;;8.00;39.10;;;;;;6188548;23;20255;-78
2022/04/10 08:24:49;;;;;;;22.13;21.00;;;8.20;38.00;;;;;;6188322;23;20182;-77
2022/04/10 08:27:15;;;;;;;22.20;21.10;;;8.10;38.40;;;;;;6187889;23;20883;-77
2022/04/10 08:29:41;;;;;;;21.67;20.67;;;8.10;39.20;;;;;;6188248;23;20170;-79
2022/04/10 08:32:07;;;;;;;20.23;19.33;;;8.10;39.10;;;;;;6188283;23;20176;-77
2022/04/10 08:34:35;;;;;;;21.47;20.50;;;8.10;37.60;;;;;;6215130;23;20511;-77
2022/04/10 08:37:05;;;;;;;21.60;20.60;;;8.00;37.80;;;;;;6188221;23;20437;-78
2022/04/10 08:39:34;;;;;;;22.60;21.40;;;8.20;37.40;;;;;;6188061;23;20387;-77
2022/04/10 08:42:06;;;;;;;21.30;20.40;;;8.30;37.10;;;;;;6187800;23;20429;-78
2022/04/10 08:44:32;;;;;;;23.00;21.73;;;8.10;38.00;;;;;;6187726;23;20381;-78
2022/04/10 08:47:01;;;;;;;21.87;20.87;;;8.20;38.00;;;;;;6186502;23;20750;-78
2022/04/10 08:49:32;;;;;;;23.57;22.33;;;8.20;38.70;;;;;;6215088;23;20374;-79
2022/04/10 08:51:59;;;;;;;21.97;20.87;;;8.30;37.50;;;;;;6188856;23;20421;-78
2022/04/10 08:54:26;;;;;;;22.23;21.03;;;8.30;37.50;;;;;;6188896;23;20391;-77
2022/04/10 08:56:51;;;;;;;21.83;20.93;;;8.50;36.60;;;;;;6188980;23;20397;-82
2022/04/10 08:59:21;;;;;;;23.17;22.17;;;8.50;37.70;;;;;;6216140;23;20379;-82
2022/04/10 09:01:56;;;;;;;23.03;21.93;;;8.50;38.20;;;;;;6188141;23;20389;-86
2022/04/10 09:04:23;;;;;;;23.83;22.50;;;8.60;36.30;;;;;;6188518;23;20390;-83
2022/04/10 09:06:57;;;;;;;23.50;22.00;;;8.70;35.50;;;;;;6188636;23;20734;-83
2022/04/10 09:09:23;;;;;;;23.37;21.97;;;8.60;35.00;;;;;;6188484;23;20398;-83
2022/04/10 09:11:52;;;;;;;22.30;21.30;;;8.70;35.10;;;;;;6188251;23;20426;-84
2022/04/10 09:14:50;;;;;;;21.60;20.57;;;8.70;33.60;;;;;;6187783;23;20555;-84
2022/04/10 09:17:22;;;;;;;21.83;20.83;;;8.70;33.90;;;;;;6212988;23;20374;-82
2022/04/10 09:19:53;;;;;;;21.57;20.67;;;8.60;34.80;;;;;;6187893;23;20404;-82
2022/04/10 09:22:35;;;;;;;21.90;20.90;;;8.50;35.20;;;;;;6187485;23;20393;-82
2022/04/10 09:25:13;;;;;;;23.00;21.90;;;8.50;35.10;;;;;;6187583;23;20415;-83
2022/04/10 09:27:44;;;;;;;21.60;20.77;;;8.50;35.20;;;;;;6186919;23;20501;-81
2022/04/10 09:30:15;;;;;;;20.80;20.00;;;8.40;35.30;;;;;;6187655;23;20399;-82
2022/04/10 09:32:52;;;;;;;20.20;19.40;;;8.50;34.10;;;;;;6187439;23;20828;-81
2022/04/10 09:35:19;;;;;;;20.40;19.47;;;8.40;35.20;;;;;;6187457;23;20462;-81
2022/04/10 09:37:46;;;;;;;22.93;21.83;;;8.20;36.20;;;;;;6186831;23;20387;-81
2022/04/10 09:40:32;;;;;;;23.47;22.27;;;8.20;35.80;;;;;;6212493;23;20397;-80
2022/04/10 09:43:00;;;;;;;21.13;20.17;;;8.30;35.50;;;;;;6187264;23;20391;-79
2022/04/10 09:45:29;;;;;;;20.20;19.40;;;8.40;35.80;;;;;;6187594;23;20388;-82
2022/04/10 09:47:55;;;;;;;19.70;18.90;;;8.50;36.50;;;;;;6212696;23;20783;-81
2022/04/10 09:50:31;;;;;;;20.43;19.53;;;8.60;37.40;;;;;;6188195;23;20383;-81
2022/04/10 09:52:57;;;;;;;18.97;18.27;;;8.70;34.80;;;;;;6187454;23;20801;-80
2022/04/10 09:55:37;;;;;;;19.47;18.57;;;8.70;31.00;;;;;;6187317;23;20721;-80
2022/04/10 09:58:10;;;;;;;18.13;17.33;;;8.80;30.20;;;;;;6187354;23;20385;-81
2022/04/10 10:00:38;;;;;;;18.30;17.50;;;8.90;29.80;;;;;;6187434;23;20454;-78
2022/04/10 10:03:05;;;;;;;20.37;19.37;;;8.80;30.70;;;;;;6187064;23;20386;-80
2022/04/10 10:05:31;;;;;;;18.73;18.03;;;8.90;29.90;;;;;;6186700;23;20390;-79
2022/04/10 10:07:58;;;;;;;20.23;19.10;;;8.90;29.90;;;;;;6187025;23;20453;-77
2022/04/10 10:10:27;;;;;;;18.50;17.60;;;8.80;29.90;;;;;;6187621;23;20393;-81
2022/04/10 10:12:52;;;;;;;17.97;17.27;;;8.80;31.40;;;;;;6187314;23;20429;-81
2022/04/10 10:15:19;;;;;;;19.43;18.63;;;8.70;30.70;;;;;;6187345;23;20394;-82
2022/04/10 10:17:45;;;;;;;19.30;18.37;;;8.80;30.70;;;;;;6188094;23;20148;-80
2022/04/10 10:20:11;;;;;;;19.00;18.13;;;9.00;31.10;;;;;;6188161;23;20462;-80
2022/04/10 10:22:37;;;;;;;19.60;18.50;;;9.10;29.80;;;;;;6188160;23;20402;-80
2022/04/10 10:25:12;;;;;;;18.87;18.07;;;9.30;27.30;;;;;;6188094;23;20430;-80
2022/04/10 10:28:01;;;;;;;18.33;17.50;;;9.30;28.40;;;;;;6188193;23;20543;-81
2022/04/10 10:30:47;;;;;;;18.10;17.40;;;9.30;29.20;;;;;;6187987;23;20387;-80
2022/04/10 10:33:24;;;;;;;19.30;18.40;;;9.20;29.50;;;;;;6214344;23;20845;-80
2022/04/10 10:35:51;;;;;;;19.63;18.50;;;9.10;29.90;;;;;;6189118;23;20382;-81
2022/04/10 10:38:30;;;;;;;20.00;19.10;;;9.00;31.60;;;;;;6190114;23;20527;-79
2022/04/10 10:41:29;;;;;;;19.93;18.97;;;9.00;32.30;;;;;;6190260;23;20466;-80
2022/04/10 10:43:56;;;;;;;19.47;18.57;;;8.80;33.20;;;;;;6189858;23;20380;-80
2022/04/10 10:46:32;;;;;;;21.33;20.27;;;8.80;34.90;;;;;;6189995;23;20441;-79
2022/04/10 10:49:16;;;;;;;22.07;20.67;;;8.70;35.00;;;;;;6190069;23;20473;-79
2022/04/10 10:51:44;;;;;;;19.43;18.73;;;8.80;35.70;;;;;;6189299;23;20496;-79
2022/04/10 10:54:20;;;;;;;19.73;18.90;;;8.70;36.40;;;;;;6214738;23;20840;-79
2022/04/10 10:56:46;;;;;;;20.10;18.90;;;8.70;36.50;;;;;;6189508;23;20384;-79
2022/04/10 10:59:25;;;;;;;20.30;19.40;;;8.60;36.90;;;;;;6189940;23;20410;-79
2022/04/10 11:01:55;;;;;;;22.10;20.90;;;8.60;37.50;;;;;;6189890;23;20450;-79
2022/04/10 11:04:21;;;;;;;20.60;19.70;;;8.60;38.00;;;;;;6214860;23;20398;-80
2022/04/10 11:06:48;;;;;;;21.43;20.07;;;8.60;37.90;;;;;;6189834;23;20395;-79
2022/04/10 11:09:28;;;;;;;20.10;19.00;;;8.50;38.30;;;;;;6190403;23;20449;-80
2022/04/10 11:11:56;;;;;;;17.63;17.03;;;8.60;36.30;;;;;;6216273;23;20513;-80
2022/04/10 11:14:32;;;;;;;18.77;18.07;;;8.70;34.50;;;;;;6189609;23;20444;-80
2022/04/10 11:17:32;;;;;;;18.73;17.93;;;8.70;32.90;;;;;;6214656;23;20392;-80
2022/04/10 11:20:03;;;;;;;19.30;18.50;;;8.80;30.60;;;;;;6189825;23;20383;-80
2022/04/10 11:22:34;;;;;;;19.60;18.70;;;8.70;32.10;;;;;;6189720;23;20382;-80
2022/04/10 11:25:10;;;;;;;20.80;19.70;;;8.70;32.10;;;;;;6189924;23;20929;-80
2022/04/10 11:27:53;;;;;;;19.17;18.47;;;8.80;32.50;;;;;;6189481;23;20456;-79
2022/04/10 11:30:29;;;;;;;20.57;19.53;;;8.70;32.70;;;;;;6189859;23;20371;-80
2022/04/10 11:33:05;;;;;;;20.23;19.23;;;8.70;32.60;;;;;;6189627;23;20418;-80
2022/04/10 11:35:37;;;;;;;20.60;19.60;;;8.80;33.30;;;;;;6189502;23;20399;-79
2022/04/10 11:38:06;;;;;;;19.40;18.60;;;8.80;34.70;;;;;;6189999;23;20382;-75
2022/04/10 11:40:34;;;;;;;19.87;18.97;;;9.00;32.60;;;;;;6189347;23;20392;-76
2022/04/10 11:43:02;;;;;;;19.97;18.97;;;9.10;31.70;;;;;;6188895;23;20387;-75
2022/04/10 11:45:30;;;;;;;18.60;17.90;;;9.20;31.80;;;;;;6188821;23;20395;-77
2022/04/10 11:47:56;;;;;;;18.83;18.07;;;9.10;31.00;;;;;;6188711;23;20391;-74
2022/04/10 11:50:24;;;;;;;20.63;19.33;;;9.30;30.90;;;;;;6189512;23;20383;-75
2022/04/10 11:53:01;;;;;;;19.50;18.60;;;9.50;32.00;;;;;;6189415;23;20427;-75
2022/04/10 11:55:34;;;;;;;18.87;17.97;;;9.50;29.90;;;;;;6189597;23;20387;-76
2022/04/10 11:58:13;;;;;;;20.03;18.90;;;9.70;30.80;;;;;;6189023;23;20383;-76
2022/04/10 12:00:46;;;;;;;18.67;17.67;;;9.90;30.20;;;;;;6189467;23;20433;-75
2022/04/10 12:03:12;;;;;;;19.13;18.33;;;9.70;29.70;;;;;;6189708;23;20387;-76
2022/04/10 12:05:38;;;;;;;20.83;19.83;;;9.40;32.60;;;;;;6190598;23;20383;-76
2022/04/10 12:08:05;;;;;;;20.27;19.37;;;9.40;33.60;;;;;;6190418;23;20160;-76
2022/04/10 12:10:31;;;;;;;19.03;18.27;;;9.30;33.70;;;;;;6190114;23;20668;-76
2022/04/10 12:12:57;;;;;;;21.33;20.30;;;9.30;33.70;;;;;;6190573;23;20427;-76
2022/04/10 12:15:27;;;;;;;21.93;20.93;;;9.30;33.70;;;;;;6189985;23;20824;-81
2022/04/10 12:18:10;;;;;;;19.23;18.33;;;9.40;33.30;;;;;;6216967;23;20890;-75
2022/04/10 12:20:44;;;;;;;19.13;18.33;;;9.50;30.40;;;;;;6189156;23;20777;-77
2022/04/10 12:23:26;;;;;;;19.27;18.23;;;9.60;30.80;;;;;;6188922;23;20859;-75
2022/04/10 12:25:57;;;;;;;19.03;18.23;;;9.70;30.40;;;;;;6188848;23;20386;-75
2022/04/10 12:28:23;;;;;;;20.73;19.73;;;9.80;28.50;;;;;;6189254;23;20695;-76
2022/04/10 12:30:49;;;;;;;20.90;19.90;;;9.90;30.00;;;;;;6188748;23;20457;-76
2022/04/10 12:33:18;;;;;;;20.67;19.67;;;9.90;29.10;;;;;;6214540;23;20430;-81
2022/04/10 12:35:45;;;;;;;19.97;19.13;;;9.70;30.00;;;;;;6189066;23;20382;-81
2022/04/10 12:38:17;;;;;;;19.60;18.60;;;9.80;31.50;;;;;;6189212;23;20719;-80
2022/04/10 12:40:43;;;;;;;20.60;19.70;;;9.90;31.20;;;;;;6189035;23;20422;-81
2022/04/10 12:43:09;;;;;;;20.30;18.87;;;9.90;31.50;;;;;;6189044;23;20388;-80
2022/04/10 12:45:37;;;;;;;20.07;18.83;;;9.80;31.60;;;;;;6188944;23;20851;-81